createdAt,value
2017-06-30T00:00:08.578Z,966.6
2017-06-30T00:01:11.161Z,966.6
2017-06-30T00:02:13.740Z,966.6
2017-06-30T00:03:16.365Z,966.6
2017-06-30T00:04:19.033Z,966.6
2017-06-30T00:05:21.577Z,966.6
2017-06-30T00:06:24.126Z,966.6
2017-06-30T00:07:26.676Z,966.6
2017-06-30T00:08:29.288Z,966.6
2017-06-30T00:09:31.855Z,966.6
2017-06-30T00:10:34.489Z,966.6
2017-06-30T00:11:37.126Z,966.6
2017-06-30T00:12:40.026Z,966.6
2017-06-30T00:13:42.637Z,966.6
2017-06-30T00:14:45.350Z,966.6
2017-06-30T00:15:48.073Z,966.7
2017-06-30T00:16:50.675Z,966.6
2017-06-30T00:17:53.238Z,966.7
2017-06-30T00:18:55.868Z,966.6
2017-06-30T00:19:58.514Z,966.6
2017-06-30T00:21:01.141Z,966.6
2017-06-30T00:22:03.677Z,966.6
2017-06-30T00:23:06.340Z,966.5
2017-06-30T00:24:08.993Z,966.5
2017-06-30T00:25:11.669Z,966.5
2017-06-30T00:26:14.275Z,966.5
2017-06-30T00:27:16.914Z,966.5
2017-06-30T00:28:19.572Z,966.5
2017-06-30T00:29:22.161Z,966.5
2017-06-30T00:30:24.715Z,966.5
2017-06-30T00:31:27.290Z,966.5
2017-06-30T00:32:29.858Z,966
2017-06-30T00:33:32.371Z,966.6
2017-06-30T00:34:35.002Z,966.5
2017-06-30T00:35:37.672Z,966.5
2017-06-30T00:36:40.276Z,966.6
2017-06-30T00:37:42.888Z,966.6
2017-06-30T00:38:45.520Z,966.6
2017-06-30T00:39:48.143Z,966.6
2017-06-30T00:40:50.723Z,966.6
2017-06-30T00:41:53.264Z,966.5
2017-06-30T00:42:55.816Z,966.7
2017-06-30T00:43:58.399Z,966.6
2017-06-30T00:45:00.977Z,966.6
2017-06-30T00:46:03.567Z,966.6
2017-06-30T00:47:06.158Z,966.6
2017-06-30T00:48:08.795Z,966.6
2017-06-30T00:49:11.385Z,966.6
2017-06-30T00:50:14.038Z,966.7
2017-06-30T00:51:16.671Z,966.6
2017-06-30T00:52:19.374Z,966.7
2017-06-30T00:53:21.925Z,966.7
2017-06-30T00:54:25.279Z,966.7
2017-06-30T00:55:27.963Z,966.7
2017-06-30T00:56:30.551Z,966.7
2017-06-30T00:57:33.194Z,966.7
2017-06-30T00:58:35.780Z,966.7
2017-06-30T00:59:38.463Z,966.7
2017-06-30T01:00:41.046Z,966.7
2017-06-30T01:01:43.667Z,966.6
2017-06-30T01:02:46.233Z,966.7
2017-06-30T01:03:49.532Z,966.6
2017-06-30T01:04:52.127Z,966.7
2017-06-30T01:05:54.709Z,966.7
2017-06-30T01:06:57.441Z,966.7
2017-06-30T01:08:00.244Z,966.7
2017-06-30T01:09:03.251Z,966.7
2017-06-30T01:10:06.262Z,966.7
2017-06-30T01:11:09.518Z,966.4
2017-06-30T01:12:12.319Z,966.7
2017-06-30T01:13:14.902Z,966.6
2017-06-30T01:14:17.634Z,966.6
2017-06-30T01:15:20.200Z,966.6
2017-06-30T01:16:22.759Z,966.6
2017-06-30T01:17:25.397Z,966.7
2017-06-30T01:18:28.040Z,966.6
2017-06-30T01:19:30.636Z,966.7
2017-06-30T01:20:33.251Z,966.6
2017-06-30T01:21:35.812Z,966.6
2017-06-30T01:22:38.546Z,966.6
2017-06-30T01:23:41.182Z,966.6
2017-06-30T01:24:44.228Z,966.6
2017-06-30T01:25:46.786Z,966.6
2017-06-30T01:26:49.519Z,966.7
2017-06-30T01:27:52.102Z,966.7
2017-06-30T01:28:54.685Z,966.6
2017-06-30T01:29:57.272Z,966.6
2017-06-30T01:30:59.886Z,966.7
2017-06-30T01:32:02.518Z,966.6
2017-06-30T01:33:05.112Z,966.7
2017-06-30T01:34:07.752Z,966.7
2017-06-30T01:35:10.305Z,966.7
2017-06-30T01:36:12.908Z,966.6
2017-06-30T01:37:15.517Z,966.7
2017-06-30T01:38:18.316Z,966.7
2017-06-30T01:39:20.855Z,966.7
2017-06-30T01:40:23.444Z,966.8
2017-06-30T01:41:26.044Z,966.4
2017-06-30T01:42:28.783Z,966.7
2017-06-30T01:43:31.335Z,966.7
2017-06-30T01:44:34.091Z,966.7
2017-06-30T01:45:36.726Z,966.8
2017-06-30T01:46:39.386Z,966.7
2017-06-30T01:47:42.116Z,966.7
2017-06-30T01:48:44.699Z,966.7
2017-06-30T01:49:47.267Z,966.8
2017-06-30T01:50:49.889Z,966.7
2017-06-30T01:51:52.496Z,966.7
2017-06-30T01:52:55.061Z,966.8
2017-06-30T01:53:57.727Z,966.8
2017-06-30T01:55:00.251Z,966.7
2017-06-30T01:56:02.866Z,966.4
2017-06-30T01:57:05.408Z,966.7
2017-06-30T01:58:08.108Z,966.7
2017-06-30T01:59:10.706Z,966.7
2017-06-30T02:00:13.329Z,966.7
2017-06-30T02:01:15.949Z,966.7
2017-06-30T02:02:18.524Z,966.7
2017-06-30T02:03:21.130Z,966.7
2017-06-30T02:04:23.641Z,966.8
2017-06-30T02:05:26.256Z,966.7
2017-06-30T02:06:28.857Z,966.7
2017-06-30T02:07:31.406Z,966.7
2017-06-30T02:08:33.996Z,966.7
2017-06-30T02:09:36.520Z,966.7
2017-06-30T02:10:39.143Z,966.7
2017-06-30T02:11:41.743Z,966.6
2017-06-30T02:12:44.324Z,966.8
2017-06-30T02:13:46.861Z,966.7
2017-06-30T02:14:49.436Z,966.8
2017-06-30T02:15:52.016Z,966.7
2017-06-30T02:16:54.507Z,966.7
2017-06-30T02:17:57.138Z,966.7
2017-06-30T02:18:59.805Z,966.7
2017-06-30T02:20:03.377Z,966.7
2017-06-30T02:21:05.999Z,966.7
2017-06-30T02:22:08.680Z,966.8
2017-06-30T02:23:11.262Z,966.8
2017-06-30T02:24:13.871Z,966.9
2017-06-30T02:25:16.448Z,966.8
2017-06-30T02:26:19.050Z,966.8
2017-06-30T02:27:21.554Z,966.8
2017-06-30T02:28:24.144Z,966.8
2017-06-30T02:29:26.703Z,966.8
2017-06-30T02:30:29.328Z,966.8
2017-06-30T02:31:32.442Z,966.8
2017-06-30T02:32:35.002Z,966.7
2017-06-30T02:33:37.611Z,966.8
2017-06-30T02:34:40.135Z,966.8
2017-06-30T02:35:42.742Z,966.9
2017-06-30T02:36:45.389Z,966.8
2017-06-30T02:37:48.053Z,966.8
2017-06-30T02:38:50.556Z,966.7
2017-06-30T02:39:53.200Z,966.8
2017-06-30T02:40:55.785Z,966.5
2017-06-30T02:41:58.397Z,966.8
2017-06-30T02:43:01.162Z,966.9
2017-06-30T02:44:03.943Z,966.8
2017-06-30T02:45:06.568Z,966.9
2017-06-30T02:46:09.175Z,966.9
2017-06-30T02:47:11.772Z,966.9
2017-06-30T02:48:14.394Z,966.9
2017-06-30T02:49:16.910Z,966.9
2017-06-30T02:50:19.525Z,967
2017-06-30T02:51:22.029Z,967
2017-06-30T02:52:24.557Z,966.9
2017-06-30T02:53:27.149Z,967
2017-06-30T02:54:29.782Z,967
2017-06-30T02:55:32.341Z,967
2017-06-30T02:56:34.864Z,967
2017-06-30T02:57:37.474Z,967
2017-06-30T02:58:40.113Z,967
2017-06-30T02:59:42.674Z,967
2017-06-30T03:00:45.206Z,967
2017-06-30T03:01:47.826Z,967
2017-06-30T03:02:50.511Z,967
2017-06-30T03:03:53.039Z,967
2017-06-30T03:04:55.642Z,967
2017-06-30T03:05:58.236Z,967.1
2017-06-30T03:07:00.993Z,967.1
2017-06-30T03:08:03.620Z,967.1
2017-06-30T03:09:06.268Z,967.1
2017-06-30T03:10:08.969Z,967.2
2017-06-30T03:11:11.656Z,967.2
2017-06-30T03:12:14.788Z,967.1
2017-06-30T03:13:17.352Z,967.2
2017-06-30T03:14:19.955Z,967.2
2017-06-30T03:15:22.463Z,967.2
2017-06-30T03:16:25.002Z,967.2
2017-06-30T03:17:27.625Z,967.2
2017-06-30T03:18:32.489Z,967.2
2017-06-30T03:19:35.083Z,967.2
2017-06-30T03:20:38.692Z,967.2
2017-06-30T03:21:41.332Z,967.2
2017-06-30T03:22:45.631Z,967.3
2017-06-30T03:23:50.372Z,967.2
2017-06-30T03:24:52.910Z,967.2
2017-06-30T03:25:55.445Z,967.2
2017-06-30T03:26:58.101Z,967.2
2017-06-30T03:28:00.754Z,967.2
2017-06-30T03:29:03.324Z,967.2
2017-06-30T03:30:05.973Z,967.3
2017-06-30T03:31:08.610Z,967
2017-06-30T03:32:11.579Z,967.2
2017-06-30T03:33:14.169Z,967.3
2017-06-30T03:34:16.740Z,967.3
2017-06-30T03:35:19.546Z,967.4
2017-06-30T03:36:22.912Z,967.4
2017-06-30T03:37:25.953Z,967.4
2017-06-30T03:38:28.565Z,967.3
2017-06-30T03:39:31.175Z,967.3
2017-06-30T03:40:33.729Z,967.4
2017-06-30T03:41:36.345Z,967.4
2017-06-30T03:42:39.022Z,967.4
2017-06-30T03:43:41.720Z,966.8
2017-06-30T03:44:44.378Z,967.4
2017-06-30T03:45:46.948Z,967.5
2017-06-30T03:46:49.721Z,967.5
2017-06-30T03:47:52.334Z,967.5
2017-06-30T03:48:54.946Z,967.4
2017-06-30T03:49:57.645Z,967.5
2017-06-30T03:51:00.259Z,967.5
2017-06-30T03:52:02.812Z,967.5
2017-06-30T03:53:05.372Z,967.5
2017-06-30T03:54:07.956Z,967.4
2017-06-30T03:55:10.521Z,967.5
2017-06-30T03:56:13.244Z,967.5
2017-06-30T03:57:15.824Z,967.5
2017-06-30T03:58:18.524Z,967.5
2017-06-30T03:59:21.224Z,967.5
2017-06-30T04:00:23.828Z,967.5
2017-06-30T04:01:26.505Z,967.5
2017-06-30T04:02:29.198Z,967.6
2017-06-30T04:03:31.960Z,967.6
2017-06-30T04:04:34.602Z,967.6
2017-06-30T04:05:37.581Z,967.6
2017-06-30T04:06:40.316Z,967.6
2017-06-30T04:07:42.968Z,967.6
2017-06-30T04:08:45.703Z,967.6
2017-06-30T04:09:48.472Z,967.7
2017-06-30T04:10:51.244Z,967.7
2017-06-30T04:11:53.882Z,967.7
2017-06-30T04:12:56.568Z,967.7
2017-06-30T04:13:59.257Z,967.7
2017-06-30T04:15:01.880Z,967.7
2017-06-30T04:16:04.561Z,967.7
2017-06-30T04:17:07.129Z,967.7
2017-06-30T04:18:09.809Z,967.7
2017-06-30T04:19:12.437Z,967.7
2017-06-30T04:20:15.020Z,967.8
2017-06-30T04:21:17.741Z,967.8
2017-06-30T04:22:20.409Z,967.7
2017-06-30T04:23:23.042Z,967.5
2017-06-30T04:24:25.635Z,967.9
2017-06-30T04:25:28.290Z,967.8
2017-06-30T04:26:30.987Z,967.8
2017-06-30T04:27:33.547Z,967.8
2017-06-30T04:28:36.132Z,967.8
2017-06-30T04:29:38.684Z,967.7
2017-06-30T04:30:41.299Z,967.7
2017-06-30T04:31:43.932Z,967.8
2017-06-30T04:32:46.575Z,967.8
2017-06-30T04:33:49.241Z,967.8
2017-06-30T04:34:51.848Z,967.9
2017-06-30T04:35:54.435Z,967.8
2017-06-30T04:36:57.077Z,967.9
2017-06-30T04:37:59.715Z,967.9
2017-06-30T04:39:02.346Z,967.9
2017-06-30T04:40:05.193Z,968
2017-06-30T04:41:07.868Z,967.9
2017-06-30T04:42:10.527Z,968
2017-06-30T04:43:13.091Z,968
2017-06-30T04:44:15.740Z,968
2017-06-30T04:45:18.401Z,967.7
2017-06-30T04:46:21.142Z,968
2017-06-30T04:47:23.778Z,968
2017-06-30T04:48:26.503Z,968
2017-06-30T04:49:29.193Z,968.1
2017-06-30T04:50:31.802Z,968.1
2017-06-30T04:51:34.473Z,968.1
2017-06-30T04:52:37.061Z,968.1
2017-06-30T04:53:39.736Z,968.1
2017-06-30T04:54:42.342Z,968
2017-06-30T04:55:44.923Z,968
2017-06-30T04:56:47.527Z,967.5
2017-06-30T04:57:50.136Z,968
2017-06-30T04:58:52.687Z,968
2017-06-30T04:59:55.361Z,968.1
2017-06-30T05:00:58.070Z,968.1
2017-06-30T05:02:00.643Z,968.1
2017-06-30T05:03:03.284Z,968.2
2017-06-30T05:04:05.848Z,968.2
2017-06-30T05:05:08.464Z,968.1
2017-06-30T05:06:11.108Z,968.1
2017-06-30T05:07:14.016Z,968
2017-06-30T05:08:16.612Z,968.2
2017-06-30T05:09:19.328Z,968.2
2017-06-30T05:10:22.562Z,968.2
2017-06-30T05:11:27.215Z,968.2
2017-06-30T05:12:29.980Z,968.2
2017-06-30T05:13:32.663Z,968.2
2017-06-30T05:14:35.234Z,968.2
2017-06-30T05:15:37.983Z,968.2
2017-06-30T05:16:40.776Z,968.2
2017-06-30T05:17:43.482Z,968.2
2017-06-30T05:18:46.369Z,968.1
2017-06-30T05:19:49.312Z,968.1
2017-06-30T05:20:51.985Z,968.2
2017-06-30T05:21:54.622Z,968.2
2017-06-30T05:22:57.349Z,968.3
2017-06-30T05:24:00.114Z,968.3
2017-06-30T05:25:02.876Z,968.2
2017-06-30T05:26:05.641Z,968.2
2017-06-30T05:27:08.263Z,968.2
2017-06-30T05:28:11.343Z,968.2
2017-06-30T05:29:13.961Z,968.3
2017-06-30T05:30:16.609Z,968.3
2017-06-30T05:31:19.333Z,968.2
2017-06-30T05:32:22.106Z,968.2
2017-06-30T05:33:24.699Z,968.2
2017-06-30T05:34:27.390Z,968.2
2017-06-30T05:35:30.105Z,968.2
2017-06-30T05:36:32.754Z,968.2
2017-06-30T05:37:35.477Z,968.2
2017-06-30T05:38:38.180Z,968.3
2017-06-30T05:39:40.787Z,968.4
2017-06-30T05:40:43.516Z,967.7
2017-06-30T05:41:46.292Z,968.4
2017-06-30T05:42:50.790Z,968.4
2017-06-30T05:43:53.633Z,968.3
2017-06-30T05:44:56.261Z,968.4
2017-06-30T05:45:58.867Z,968.4
2017-06-30T05:47:01.500Z,968.4
2017-06-30T05:48:04.150Z,968.4
2017-06-30T05:49:06.754Z,968.4
2017-06-30T05:50:09.596Z,968.4
2017-06-30T05:51:12.257Z,968.4
2017-06-30T05:52:14.951Z,968.5
2017-06-30T05:53:17.786Z,968.4
2017-06-30T05:54:20.754Z,968.4
2017-06-30T05:55:24.124Z,968.5
2017-06-30T05:56:26.927Z,968.5
2017-06-30T05:57:29.950Z,968.5
2017-06-30T05:58:32.689Z,968.5
2017-06-30T05:59:35.374Z,968.5
2017-06-30T06:00:38.155Z,968.5
2017-06-30T06:01:40.877Z,968.5
2017-06-30T06:02:43.865Z,968.6
2017-06-30T06:03:46.494Z,968.6
2017-06-30T06:04:50.680Z,968.6
2017-06-30T06:05:53.443Z,968.7
2017-06-30T06:06:56.039Z,968.6
2017-06-30T06:07:58.763Z,968.6
2017-06-30T06:09:02.032Z,968.6
2017-06-30T06:10:04.674Z,968.7
2017-06-30T06:11:07.428Z,968.7
2017-06-30T06:12:10.132Z,968.7
2017-06-30T06:13:12.877Z,968.1
2017-06-30T06:14:15.573Z,968.7
2017-06-30T06:15:18.253Z,968.7
2017-06-30T06:16:21.171Z,968.7
2017-06-30T06:17:23.826Z,968.7
2017-06-30T06:18:26.510Z,968.7
2017-06-30T06:19:29.745Z,968.7
2017-06-30T06:20:33.896Z,968.7
2017-06-30T06:21:37.423Z,968.6
2017-06-30T06:22:41.216Z,968.3
2017-06-30T06:23:43.788Z,968.7
2017-06-30T06:24:46.468Z,968.7
2017-06-30T06:25:50.778Z,968.7
2017-06-30T06:26:53.916Z,968.6
2017-06-30T06:27:56.571Z,968.7
2017-06-30T06:28:59.586Z,968.8
2017-06-30T06:30:02.783Z,968.7
2017-06-30T06:31:05.370Z,968.7
2017-06-30T06:32:08.721Z,968.7
2017-06-30T06:33:11.395Z,968.8
2017-06-30T06:34:14.018Z,968.4
2017-06-30T06:35:16.788Z,968.8
2017-06-30T06:36:19.573Z,968.8
2017-06-30T06:37:22.496Z,968.9
2017-06-30T06:38:25.228Z,968.9
2017-06-30T06:39:27.855Z,968.9
2017-06-30T06:40:30.480Z,968.8
2017-06-30T06:41:39.870Z,968.8
2017-06-30T06:42:42.506Z,968.9
2017-06-30T06:43:45.204Z,968.9
2017-06-30T06:44:48.014Z,968.9
2017-06-30T06:45:51.588Z,968.9
2017-06-30T06:46:54.493Z,968.9
2017-06-30T06:47:57.232Z,968.9
2017-06-30T06:48:59.961Z,968.9
2017-06-30T06:50:02.670Z,968.9
2017-06-30T06:51:05.311Z,968.9
2017-06-30T06:52:08.051Z,968.9
2017-06-30T06:53:10.832Z,968.9
2017-06-30T06:54:13.483Z,968.9
2017-06-30T06:55:16.139Z,968.9
2017-06-30T06:56:19.142Z,968.9
2017-06-30T06:57:22.025Z,968.9
2017-06-30T06:58:24.750Z,968.9
2017-06-30T06:59:27.628Z,968.3
2017-06-30T07:00:30.427Z,968.9
2017-06-30T07:01:33.158Z,968.9
2017-06-30T07:02:35.854Z,968.6
2017-06-30T07:03:39.434Z,969
2017-06-30T07:04:42.137Z,969
2017-06-30T07:05:44.840Z,968.9
2017-06-30T07:06:47.537Z,969
2017-06-30T07:07:50.435Z,968.6
2017-06-30T07:08:53.280Z,969
2017-06-30T07:09:56.018Z,969
2017-06-30T07:10:58.828Z,969
2017-06-30T07:12:01.754Z,969
2017-06-30T07:13:09.939Z,969
2017-06-30T07:14:12.604Z,969
2017-06-30T07:15:15.499Z,969
2017-06-30T07:16:18.283Z,969
2017-06-30T07:17:21.756Z,969
2017-06-30T07:18:24.622Z,969
2017-06-30T07:19:27.810Z,969
2017-06-30T07:20:30.775Z,969
2017-06-30T07:21:33.864Z,969
2017-06-30T07:22:36.935Z,969
2017-06-30T07:23:39.859Z,969.1
2017-06-30T07:24:42.562Z,969.1
2017-06-30T07:25:45.381Z,969.1
2017-06-30T07:26:48.370Z,969.2
2017-06-30T07:27:51.129Z,969.1
2017-06-30T07:28:53.769Z,969.1
2017-06-30T07:29:56.740Z,969.1
2017-06-30T07:30:59.631Z,969.2
2017-06-30T07:32:02.524Z,969.1
2017-06-30T07:33:05.357Z,969.2
2017-06-30T07:34:08.485Z,969.1
2017-06-30T07:35:11.339Z,969.2
2017-06-30T07:36:14.077Z,969.2
2017-06-30T07:37:16.808Z,969.2
2017-06-30T07:38:19.882Z,969.3
2017-06-30T07:39:23.288Z,969.2
2017-06-30T07:40:26.086Z,969.2
2017-06-30T07:41:30.258Z,969.2
2017-06-30T07:42:34.253Z,969.2
2017-06-30T07:43:37.403Z,969.2
2017-06-30T07:44:40.232Z,969.2
2017-06-30T07:45:43.604Z,969.2
2017-06-30T07:46:46.572Z,969.2
2017-06-30T07:47:50.363Z,969.1
2017-06-30T07:48:53.045Z,969.2
2017-06-30T07:49:55.817Z,969.3
2017-06-30T07:50:58.571Z,969.2
2017-06-30T07:52:01.321Z,969.2
2017-06-30T07:53:04.025Z,969.2
2017-06-30T07:54:06.842Z,969.3
2017-06-30T07:55:09.892Z,969.3
2017-06-30T07:56:12.920Z,968.7
2017-06-30T07:57:16.376Z,969.2
2017-06-30T07:58:26.442Z,969.3
2017-06-30T07:59:29.330Z,969.2
2017-06-30T08:00:32.844Z,969.1
2017-06-30T08:01:35.933Z,969.3
2017-06-30T08:02:38.868Z,969.2
2017-06-30T08:03:41.507Z,969.2
2017-06-30T08:04:44.535Z,969.3
2017-06-30T08:05:47.647Z,969.3
2017-06-30T08:06:50.475Z,969.3
2017-06-30T08:07:53.351Z,969
2017-06-30T08:08:56.186Z,969.2
2017-06-30T08:09:58.959Z,969.3
2017-06-30T08:11:01.629Z,969.3
2017-06-30T08:12:04.339Z,969.3
2017-06-30T08:13:07.236Z,969.4
2017-06-30T08:14:10.394Z,969
2017-06-30T08:15:13.155Z,969.3
2017-06-30T08:16:17.002Z,969.3
2017-06-30T08:17:24.712Z,969
2017-06-30T08:18:27.541Z,969.4
2017-06-30T08:19:31.389Z,969.3
2017-06-30T08:20:35.592Z,969.3
2017-06-30T08:21:44.322Z,969
2017-06-30T08:22:48.177Z,969.4
2017-06-30T08:23:51.536Z,969.4
2017-06-30T08:24:54.522Z,969.3
2017-06-30T08:25:58.206Z,969.4
2017-06-30T08:27:01.615Z,968.9
2017-06-30T08:28:05.136Z,969.4
2017-06-30T08:29:08.122Z,969.4
2017-06-30T08:30:10.871Z,969.4
2017-06-30T08:31:14.668Z,969.4
2017-06-30T08:32:18.077Z,969.5
2017-06-30T08:33:20.784Z,969.5
2017-06-30T08:34:23.684Z,969.5
2017-06-30T08:35:26.626Z,969.4
2017-06-30T08:36:29.636Z,969.4
2017-06-30T08:37:32.303Z,969.4
2017-06-30T08:38:35.039Z,969.4
2017-06-30T08:39:38.265Z,969.4
2017-06-30T08:40:41.088Z,969.3
2017-06-30T08:41:43.697Z,969.4
2017-06-30T08:42:46.531Z,969.4
2017-06-30T08:43:49.488Z,969.5
2017-06-30T08:44:52.268Z,969.4
2017-06-30T08:45:55.246Z,969.4
2017-06-30T08:46:58.836Z,969.3
2017-06-30T08:48:01.804Z,969.4
2017-06-30T08:49:04.583Z,969.4
2017-06-30T08:50:07.941Z,969.5
2017-06-30T08:51:11.414Z,969.3
2017-06-30T08:52:17.352Z,969.4
2017-06-30T08:53:20.224Z,969.5
2017-06-30T08:54:23.008Z,969.2
2017-06-30T08:55:26.022Z,969.5
2017-06-30T08:56:28.961Z,969.5
2017-06-30T08:57:31.876Z,969.4
2017-06-30T08:58:34.805Z,969.5
2017-06-30T08:59:37.492Z,969.4
2017-06-30T09:00:40.814Z,969.5
2017-06-30T09:01:43.961Z,969.5
2017-06-30T09:02:46.651Z,969.5
2017-06-30T09:03:49.518Z,969.5
2017-06-30T09:04:52.199Z,969.5
2017-06-30T09:05:56.304Z,969.5
2017-06-30T09:06:59.483Z,969.5
2017-06-30T09:08:02.381Z,969.6
2017-06-30T09:09:05.210Z,969.5
2017-06-30T09:10:07.972Z,969.3
2017-06-30T09:11:10.871Z,969.5
2017-06-30T09:12:13.800Z,969.2
2017-06-30T09:13:16.682Z,969.5
2017-06-30T09:14:19.436Z,969.4
2017-06-30T09:15:22.537Z,969.5
2017-06-30T09:16:25.219Z,969.6
2017-06-30T09:17:27.972Z,969.5
2017-06-30T09:18:31.032Z,969.5
2017-06-30T09:19:33.719Z,969.5
2017-06-30T09:20:36.516Z,969.5
2017-06-30T09:21:39.558Z,969.5
2017-06-30T09:22:42.387Z,969.5
2017-06-30T09:23:45.181Z,969.5
2017-06-30T09:24:48.036Z,969.5
2017-06-30T09:25:51.326Z,969.5
2017-06-30T09:26:54.184Z,969.4
2017-06-30T09:27:57.062Z,969.5
2017-06-30T09:28:59.851Z,969.5
2017-06-30T09:30:02.756Z,969.5
2017-06-30T09:31:05.972Z,969.5
2017-06-30T09:32:08.686Z,969.6
2017-06-30T09:33:11.639Z,969.6
2017-06-30T09:34:14.437Z,969.6
2017-06-30T09:35:17.238Z,969.6
2017-06-30T09:36:20.201Z,969.5
2017-06-30T09:37:22.982Z,969.6
2017-06-30T09:38:25.698Z,969.6
2017-06-30T09:39:34.227Z,969.6
2017-06-30T09:40:37.169Z,969.6
2017-06-30T09:41:39.924Z,969.6
2017-06-30T09:42:43.246Z,969.6
2017-06-30T09:43:46.311Z,969.3
2017-06-30T09:44:49.245Z,969.5
2017-06-30T09:45:52.115Z,969.3
2017-06-30T09:46:56.823Z,969.4
2017-06-30T09:48:02.412Z,969.5
2017-06-30T09:49:05.317Z,969.5
2017-06-30T09:50:08.198Z,969.4
2017-06-30T09:51:12.004Z,969.5
2017-06-30T09:52:15.095Z,969.5
2017-06-30T09:53:17.995Z,969.4
2017-06-30T09:54:20.886Z,969.4
2017-06-30T09:55:23.746Z,969.5
2017-06-30T09:56:26.602Z,969.5
2017-06-30T09:57:29.823Z,969.5
2017-06-30T09:58:32.555Z,969.6
2017-06-30T09:59:35.492Z,969.6
2017-06-30T10:00:38.281Z,969.6
2017-06-30T10:01:42.162Z,969.6
2017-06-30T10:02:45.245Z,969.6
2017-06-30T10:03:48.106Z,969.5
2017-06-30T10:04:51.595Z,969.6
2017-06-30T10:05:55.036Z,969
2017-06-30T10:06:58.005Z,969.6
2017-06-30T10:08:01.013Z,969.6
2017-06-30T10:09:03.954Z,969.6
2017-06-30T10:10:07.022Z,969.6
2017-06-30T10:11:09.826Z,969.5
2017-06-30T10:12:12.713Z,969.6
2017-06-30T10:13:15.444Z,969.5
2017-06-30T10:14:18.470Z,969.6
2017-06-30T10:15:21.495Z,969.5
2017-06-30T10:16:24.354Z,969.6
2017-06-30T10:17:27.212Z,969.5
2017-06-30T10:18:30.350Z,969.5
2017-06-30T10:19:33.137Z,969.5
2017-06-30T10:20:35.916Z,969.5
2017-06-30T10:21:38.573Z,969.5
2017-06-30T10:22:41.251Z,969.5
2017-06-30T10:23:43.963Z,969.5
2017-06-30T10:24:46.684Z,969.5
2017-06-30T10:25:49.728Z,969.5
2017-06-30T10:26:52.676Z,969.6
2017-06-30T10:27:55.365Z,969.5
2017-06-30T10:28:58.129Z,969.6
2017-06-30T10:30:01.026Z,969.6
2017-06-30T10:31:03.711Z,969.6
2017-06-30T10:32:06.401Z,969.6
2017-06-30T10:33:09.556Z,969
2017-06-30T10:34:12.507Z,969.6
2017-06-30T10:35:15.484Z,969.6
2017-06-30T10:36:18.288Z,969.6
2017-06-30T10:37:21.277Z,969.5
2017-06-30T10:38:24.226Z,969.5
2017-06-30T10:39:26.885Z,969.6
2017-06-30T10:40:29.779Z,969.6
2017-06-30T10:41:32.650Z,969.6
2017-06-30T10:42:35.443Z,969.6
2017-06-30T10:43:38.561Z,969.6
2017-06-30T10:44:42.427Z,969.6
2017-06-30T10:45:45.309Z,969.6
2017-06-30T10:46:48.041Z,969.6
2017-06-30T10:47:50.965Z,969.6
2017-06-30T10:48:53.711Z,969.6
2017-06-30T10:49:56.685Z,969.7
2017-06-30T10:51:00.862Z,969.6
2017-06-30T10:52:03.941Z,969.6
2017-06-30T10:53:07.089Z,969.6
2017-06-30T10:54:09.876Z,969.6
2017-06-30T10:55:12.861Z,969.6
2017-06-30T10:56:15.665Z,969.6
2017-06-30T10:57:20.508Z,969.6
2017-06-30T10:58:23.444Z,969.6
2017-06-30T10:59:26.201Z,969.6
2017-06-30T11:00:30.706Z,969.6
2017-06-30T11:01:33.680Z,969.6
2017-06-30T11:02:37.597Z,969.6
2017-06-30T11:03:40.410Z,969.6
2017-06-30T11:04:43.209Z,969.6
2017-06-30T11:05:46.267Z,969.6
2017-06-30T11:06:49.164Z,969.5
2017-06-30T11:07:52.935Z,969.5
2017-06-30T11:08:56.217Z,969.5
2017-06-30T11:09:59.889Z,969.5
2017-06-30T11:11:03.296Z,969.5
2017-06-30T11:12:08.332Z,969.5
2017-06-30T11:13:11.372Z,969.6
2017-06-30T11:14:14.268Z,969.6
2017-06-30T11:15:17.135Z,969.5
2017-06-30T11:16:20.117Z,969.5
2017-06-30T11:17:22.958Z,969.6
2017-06-30T11:18:25.893Z,969.6
2017-06-30T11:19:28.850Z,969.6
2017-06-30T11:20:31.693Z,969.7
2017-06-30T11:21:34.581Z,969.6
2017-06-30T11:22:37.563Z,969.5
2017-06-30T11:23:40.780Z,969.6
2017-06-30T11:24:43.604Z,969.7
2017-06-30T11:25:46.784Z,969.7
2017-06-30T11:26:49.681Z,969.7
2017-06-30T11:27:52.540Z,969.7
2017-06-30T11:28:55.237Z,969.8
2017-06-30T11:29:58.377Z,969.7
2017-06-30T11:31:01.278Z,969.8
2017-06-30T11:32:04.078Z,969.8
2017-06-30T11:33:06.863Z,969.8
2017-06-30T11:34:10.239Z,969.8
2017-06-30T11:35:13.122Z,969.8
2017-06-30T11:36:15.960Z,969.8
2017-06-30T11:37:18.797Z,969.9
2017-06-30T11:38:21.536Z,969.8
2017-06-30T11:39:24.418Z,969.8
2017-06-30T11:40:27.093Z,969.9
2017-06-30T11:41:29.963Z,969.8
2017-06-30T11:42:32.835Z,969.8
2017-06-30T11:43:35.694Z,969.8
2017-06-30T11:44:38.583Z,969.8
2017-06-30T11:45:41.455Z,969.8
2017-06-30T11:46:44.266Z,969.9
2017-06-30T11:47:47.581Z,969.8
2017-06-30T11:48:50.437Z,969.8
2017-06-30T11:49:53.449Z,969.5
2017-06-30T11:50:56.169Z,969.8
2017-06-30T11:51:58.890Z,969.8
2017-06-30T11:53:01.895Z,969.8
2017-06-30T11:54:04.764Z,969.8
2017-06-30T11:55:07.620Z,969.7
2017-06-30T11:56:10.677Z,969.8
2017-06-30T11:57:13.409Z,969.8
2017-06-30T11:58:16.082Z,969.8
2017-06-30T11:59:18.880Z,969.8
2017-06-30T12:00:22.513Z,969.8
2017-06-30T12:01:25.346Z,969.8
2017-06-30T12:02:28.387Z,969.8
2017-06-30T12:03:31.494Z,969.8
2017-06-30T12:04:34.377Z,969.8
2017-06-30T12:05:37.255Z,969.8
2017-06-30T12:06:41.586Z,969.8
2017-06-30T12:07:44.618Z,969.8
2017-06-30T12:08:47.237Z,969.3
2017-06-30T12:09:50.761Z,969.8
2017-06-30T12:10:53.425Z,969.8
2017-06-30T12:11:56.116Z,969.8
2017-06-30T12:12:59.898Z,969.8
2017-06-30T12:14:02.829Z,969.7
2017-06-30T12:15:05.605Z,969.8
2017-06-30T12:16:08.294Z,969.8
2017-06-30T12:17:11.237Z,969.8
2017-06-30T12:18:14.030Z,969.8
2017-06-30T12:19:16.808Z,969.8
2017-06-30T12:20:19.906Z,969.8
2017-06-30T12:21:22.686Z,969.8
2017-06-30T12:22:25.460Z,969.8
2017-06-30T12:23:28.361Z,969.5
2017-06-30T12:24:31.506Z,969.8
2017-06-30T12:25:34.196Z,969.8
2017-06-30T12:26:37.016Z,969.8
2017-06-30T12:27:40.329Z,969.8
2017-06-30T12:28:43.174Z,969.5
2017-06-30T12:29:46.042Z,969.8
2017-06-30T12:30:48.892Z,969.8
2017-06-30T12:31:52.856Z,969.8
2017-06-30T12:32:55.785Z,969.8
2017-06-30T12:33:58.913Z,969.8
2017-06-30T12:35:01.701Z,969.7
2017-06-30T12:36:04.438Z,969.8
2017-06-30T12:37:07.186Z,969.8
2017-06-30T12:38:10.262Z,969.8
2017-06-30T12:39:13.056Z,969.9
2017-06-30T12:40:15.740Z,969.9
2017-06-30T12:41:18.657Z,969.9
2017-06-30T12:42:21.465Z,969.9
2017-06-30T12:43:24.449Z,969.9
2017-06-30T12:44:27.156Z,969.9
2017-06-30T12:45:30.109Z,969.9
2017-06-30T12:46:32.845Z,969.9
2017-06-30T12:47:37.721Z,969.6
2017-06-30T12:48:45.224Z,969.6
2017-06-30T12:49:47.962Z,969.4
2017-06-30T12:50:50.705Z,969.9
2017-06-30T12:51:53.505Z,969.9
2017-06-30T12:52:56.364Z,969.8
2017-06-30T12:53:59.125Z,969.8
2017-06-30T12:55:02.237Z,969.9
2017-06-30T12:56:05.028Z,969.8
2017-06-30T12:57:08.002Z,969.5
2017-06-30T12:58:11.057Z,969.8
2017-06-30T12:59:13.827Z,969.8
2017-06-30T13:00:16.661Z,969.8
2017-06-30T13:01:19.386Z,969.8
2017-06-30T13:02:22.209Z,969.8
2017-06-30T13:03:24.911Z,969.8
2017-06-30T13:04:27.820Z,969.8
2017-06-30T13:05:30.766Z,969.8
2017-06-30T13:06:33.470Z,969.8
2017-06-30T13:07:36.561Z,969.8
2017-06-30T13:08:39.235Z,969.8
2017-06-30T13:09:43.666Z,969.3
2017-06-30T13:10:48.056Z,969.8
2017-06-30T13:11:50.773Z,969.8
2017-06-30T13:12:53.643Z,969.7
2017-06-30T13:13:56.614Z,969.8
2017-06-30T13:14:59.394Z,969.7
2017-06-30T13:16:02.324Z,969.8
2017-06-30T13:17:05.137Z,969.8
2017-06-30T13:18:08.835Z,969.7
2017-06-30T13:19:11.852Z,969.7
2017-06-30T13:20:14.672Z,969.8
2017-06-30T13:21:17.387Z,969.8
2017-06-30T13:22:20.246Z,969.7
2017-06-30T13:23:23.000Z,969.7
2017-06-30T13:24:25.741Z,969.7
2017-06-30T13:25:28.444Z,969.7
2017-06-30T13:26:31.237Z,969.7
2017-06-30T13:27:33.884Z,969.7
2017-06-30T13:28:36.733Z,969.7
2017-06-30T13:29:39.614Z,969.7
2017-06-30T13:30:42.429Z,969.6
2017-06-30T13:31:45.228Z,969.6
2017-06-30T13:32:48.002Z,969.6